Time;durP1;ratioP1;P1;durP2;ratioP2;P2;SDS_P1;SDS_P2;PMS_P1;PMS_P2;Temp;Humidity;BMP_temperature;BMP_pressure;BME280_temperature;BME280_humidity;BME280_pressure;Samples;Min_cycle;Max_cycle;Signal;HPM_P1;HPM_P2
2021/06/16 00:00:32;;;;;;;1.85;1.40;;;;;;;31.77;24.21;94251.97;5115161;28;20078;-54
2021/06/16 00:02:59;;;;;;;2.08;1.50;;;;;;;31.90;24.10;94250.06;5115222;28;20438;-56
2021/06/16 00:05:29;;;;;;;2.60;1.48;;;;;;;30.75;25.84;94239.63;5114660;28;20048;-55
2021/06/16 00:07:57;;;;;;;2.08;1.30;;;;;;;30.67;25.72;94239.00;5115152;28;20051;-53
2021/06/16 00:10:29;;;;;;;2.67;1.30;;;;;;;30.84;25.84;94236.34;5114655;28;20477;-54
2021/06/16 00:12:58;;;;;;;2.25;1.55;;;;;;;31.33;25.04;94239.13;5115416;28;20373;-52
2021/06/16 00:15:28;;;;;;;2.22;1.50;;;;;;;31.70;24.68;94235.88;5114661;28;20047;-53
2021/06/16 00:17:55;;;;;;;1.60;1.30;;;;;;;31.34;25.17;94235.25;5115110;28;20048;-54
2021/06/16 00:20:23;;;;;;;2.60;1.40;;;;;;;31.59;24.66;94230.75;5119756;28;20054;-54
2021/06/16 00:22:52;;;;;;;2.30;1.48;;;;;;;30.88;25.33;94226.22;5135484;28;20050;-57
2021/06/16 00:25:20;;;;;;;2.30;1.35;;;;;;;30.65;25.88;94230.56;5117341;28;20485;-53
2021/06/16 00:27:47;;;;;;;2.50;1.50;;;;;;;31.09;25.12;94235.81;5113824;28;20047;-56
2021/06/16 00:30:14;;;;;;;1.90;1.50;;;;;;;31.48;24.84;94230.25;5114776;28;20039;-54
2021/06/16 00:32:43;;;;;;;2.40;1.25;;;;;;;31.12;25.27;94230.31;5115006;28;20453;-54
2021/06/16 00:35:12;;;;;;;5.13;1.20;;;;;;;31.52;24.73;94224.78;5114463;28;20366;-54
2021/06/16 00:37:40;;;;;;;2.17;1.45;;;;;;;31.49;24.64;94217.50;5114012;28;20465;-53
2021/06/16 00:40:12;;;;;;;2.25;1.58;;;;;;;30.51;26.22;94213.91;5114566;28;20442;-58
2021/06/16 00:42:40;;;;;;;2.60;1.63;;;;;;;31.12;25.55;94208.72;5114351;28;20461;-58
2021/06/16 00:45:09;;;;;;;3.00;1.38;;;;;;;31.06;25.12;94205.00;5112609;28;20050;-54
2021/06/16 00:47:36;;;;;;;1.45;1.33;;;;;;;31.43;24.68;94211.09;5114798;28;20050;-54
2021/06/16 00:50:05;;;;;;;1.60;1.30;;;;;;;31.06;25.59;94198.84;5116634;28;20047;-53
2021/06/16 00:52:32;;;;;;;2.53;1.33;;;;;;;31.43;24.98;94201.06;5129027;28;20047;-55
2021/06/16 00:55:00;;;;;;;2.10;1.40;;;;;;;31.62;24.54;94212.19;5113516;28;20047;-53
2021/06/16 00:57:27;;;;;;;1.88;1.30;;;;;;;31.85;24.01;94201.94;5117094;28;20039;-59
2021/06/16 01:00:10;;;;;;;3.20;1.52;;;;;;;31.80;24.32;94207.88;5118503;28;20048;-53
2021/06/16 01:03:04;;;;;;;1.60;1.30;;;;;;;31.72;24.33;94200.38;5118517;28;20050;-52
2021/06/16 01:05:38;;;;;;;2.08;1.45;;;;;;;31.99;24.13;94197.34;5116854;28;20059;-53
2021/06/16 01:08:06;;;;;;;2.75;1.38;;;;;;;30.99;25.40;94178.19;5117485;28;20117;-54
2021/06/16 01:10:38;;;;;;;2.75;1.92;;;;;;;30.62;26.07;94180.16;5118243;28;20051;-58
2021/06/16 01:13:20;;;;;;;;;;;;;;;31.59;24.58;94175.97;5117784;28;20442;-54
2021/06/16 01:15:49;;;;;;;2.33;1.40;;;;;;;30.11;26.84;94178.13;5108636;28;20323;-53
2021/06/16 01:18:19;;;;;;;2.45;1.30;;;;;;;29.20;28.31;94190.09;5096917;28;20052;-56
2021/06/16 01:20:52;;;;;;;1.85;1.30;;;;;;;29.42;27.84;94192.03;5113941;27;20047;-55
2021/06/16 01:23:24;;;;;;;4.15;1.50;;;;;;;30.49;26.35;94184.66;5138671;27;20043;-59
2021/06/16 01:26:04;;;;;;;3.55;1.40;;;;;;;29.49;27.92;94179.63;5119643;27;20043;-56
2021/06/16 01:28:39;;;;;;;3.78;1.60;;;;;;;29.92;27.15;94188.44;5118025;28;20051;-53
2021/06/16 01:31:08;;;;;;;2.78;1.50;;;;;;;29.82;27.29;94186.72;5116522;28;20442;-54
2021/06/16 01:33:37;;;;;;;2.85;1.60;;;;;;;30.23;26.57;94193.69;5116963;28;20044;-53
2021/06/16 01:36:06;;;;;;;1.77;1.38;;;;;;;29.86;27.36;94179.34;5116364;28;20089;-53
2021/06/16 01:38:33;;;;;;;3.03;1.30;;;;;;;29.53;28.02;94186.47;5116852;28;20051;-53
2021/06/16 01:41:02;;;;;;;1.77;1.25;;;;;;;29.10;28.44;94195.22;5117243;28;20050;-55
2021/06/16 01:43:30;;;;;;;2.53;1.42;;;;;;;29.44;28.06;94195.09;5116777;28;20447;-53
2021/06/16 01:46:00;;;;;;;2.75;1.50;;;;;;;29.19;28.17;94183.94;5116256;28;20043;-55
2021/06/16 01:48:29;;;;;;;4.00;1.58;;;;;;;29.54;27.88;94189.94;5099423;28;20434;-58
2021/06/16 01:50:57;;;;;;;2.20;1.48;;;;;;;29.58;27.86;94194.06;5116134;27;20055;-55
2021/06/16 01:53:24;;;;;;;2.88;1.52;;;;;;;29.67;27.62;94185.47;5137100;27;20043;-53
2021/06/16 01:55:52;;;;;;;4.45;1.42;;;;;;;29.15;28.26;94188.63;5119161;27;20044;-55
2021/06/16 01:58:20;;;;;;;2.17;1.52;;;;;;;30.15;26.85;94193.03;5116412;28;20051;-54
2021/06/16 02:00:48;;;;;;;2.95;1.50;;;;;;;30.25;26.77;94183.25;5116374;28;20050;-55
2021/06/16 02:03:15;;;;;;;3.70;1.70;;;;;;;29.24;28.37;94194.25;5117370;28;20044;-55
2021/06/16 02:05:42;;;;;;;2.97;1.40;;;;;;;29.69;27.62;94188.53;5115929;28;20055;-54
2021/06/16 02:08:16;;;;;;;2.70;1.40;;;;;;;29.62;27.73;94189.38;5117173;28;20044;-54
2021/06/16 02:10:49;;;;;;;2.22;1.50;;;;;;;30.07;26.94;94189.75;5115792;28;20050;-53
2021/06/16 02:13:37;;;;;;;2.17;1.40;;;;;;;29.54;28.02;94187.25;5116222;28;20059;-53
2021/06/16 02:16:13;;;;;;;2.00;1.40;;;;;;;30.36;26.85;94192.63;5116586;28;20078;-54
2021/06/16 02:18:48;;;;;;;2.10;1.25;;;;;;;30.57;26.67;94196.81;5117097;27;20069;-56
2021/06/16 02:21:16;;;;;;;2.67;1.50;;;;;;;29.31;28.15;94194.13;5127891;27;20043;-55
2021/06/16 02:23:44;;;;;;;3.13;1.58;;;;;;;30.00;27.07;94197.94;5137585;27;20043;-57
2021/06/16 02:26:15;;;;;;;4.43;1.50;;;;;;;29.97;27.39;94201.47;5117447;27;20468;-56
2021/06/16 02:28:43;;;;;;;2.45;1.73;;;;;;;29.52;27.77;94189.59;5116298;28;20050;-58
2021/06/16 02:31:11;;;;;;;3.65;1.48;;;;;;;29.39;28.37;94198.22;5116191;28;20054;-54
2021/06/16 02:33:39;;;;;;;2.75;1.50;;;;;;;29.91;27.64;94192.31;5116257;28;20055;-54
2021/06/16 02:36:08;;;;;;;2.97;1.40;;;;;;;29.90;27.35;94187.34;5114584;28;20052;-54
2021/06/16 02:38:36;;;;;;;3.22;1.55;;;;;;;29.61;28.01;94189.78;5116512;28;20050;-53
2021/06/16 02:41:06;;;;;;;2.13;1.75;;;;;;;29.46;28.50;94195.44;5115295;28;20062;-54
2021/06/16 02:43:34;;;;;;;3.47;1.77;;;;;;;29.11;28.88;94195.97;5116124;28;20043;-54
2021/06/16 02:46:02;;;;;;;3.47;1.60;;;;;;;29.56;28.07;94192.97;5114341;28;20471;-54
2021/06/16 02:48:29;;;;;;;2.00;1.52;;;;;;;29.75;27.67;94194.94;5116081;28;20043;-53
2021/06/16 02:50:57;;;;;;;2.60;1.70;;;;;;;30.11;27.14;94186.22;5125007;27;20070;-56
2021/06/16 02:53:26;;;;;;;4.15;2.00;;;;;;;30.02;27.33;94195.59;5135520;27;20055;-53
2021/06/16 02:55:55;;;;;;;3.08;1.70;;;;;;;29.32;28.53;94201.03;5120506;27;20044;-56
2021/06/16 02:58:23;;;;;;;3.42;1.60;;;;;;;29.12;28.81;94194.81;5115676;28;20852;-52
2021/06/16 03:00:59;;;;;;;3.47;1.67;;;;;;;29.68;27.78;94197.78;5094194;28;20048;-53
2021/06/16 03:03:26;;;;;;;2.63;1.70;;;;;;;30.03;27.08;94197.13;5094729;28;20052;-54
2021/06/16 03:05:56;;;;;;;3.05;1.40;;;;;;;29.32;28.13;94201.03;5107653;28;20381;-53
2021/06/16 03:08:24;;;;;;;4.00;2.10;;;;;;;29.43;28.04;94198.94;5115075;28;20051;-54
2021/06/16 03:10:51;;;;;;;2.28;1.88;;;;;;;30.29;27.00;94206.25;5114579;28;20453;-57
2021/06/16 03:13:19;;;;;;;1.92;1.52;;;;;;;30.04;27.23;94209.44;5114883;28;20051;-57
2021/06/16 03:15:47;;;;;;;2.17;1.55;;;;;;;30.29;26.92;94213.59;5114598;28;20050;-53
2021/06/16 03:18:17;;;;;;;3.72;1.80;;;;;;;30.10;27.34;94206.25;5114894;28;20051;-52
2021/06/16 03:20:46;;;;;;;2.33;1.63;;;;;;;29.49;27.88;94211.94;5121760;27;20356;-53
2021/06/16 03:23:14;;;;;;;2.83;1.70;;;;;;;29.99;27.46;94214.53;5125413;27;20043;-53
2021/06/16 03:25:43;;;;;;;3.85;1.50;;;;;;;29.40;28.33;94209.75;5105861;28;20043;-53
2021/06/16 03:28:11;;;;;;;2.00;1.40;;;;;;;30.75;26.06;94211.91;5097751;28;20052;-54
2021/06/16 03:30:40;;;;;;;3.42;1.80;;;;;;;28.40;29.23;94213.09;5115228;28;20062;-61
2021/06/16 03:33:07;;;;;;;3.15;1.70;;;;;;;27.95;30.68;94213.97;5097243;28;20044;-54
2021/06/16 03:35:35;;;;;;;3.40;1.75;;;;;;;29.12;28.47;94210.94;5103429;28;20044;-52
2021/06/16 03:38:04;;;;;;;4.47;1.80;;;;;;;29.57;28.26;94207.97;5114552;28;20043;-53
2021/06/16 03:40:32;;;;;;;2.45;1.65;;;;;;;29.26;28.46;94215.38;5114122;28;20078;-56
2021/06/16 03:43:00;;;;;;;3.83;1.85;;;;;;;29.18;28.78;94214.72;5110842;28;20036;-52
2021/06/16 03:45:28;;;;;;;2.33;1.65;;;;;;;30.03;27.53;94218.69;5101190;28;20048;-51
2021/06/16 03:47:58;;;;;;;2.92;1.98;;;;;;;30.49;26.58;94211.63;5115448;28;20353;-53
2021/06/16 03:50:26;;;;;;;3.20;1.40;;;;;;;30.14;27.34;94220.41;5102083;27;20047;-54
2021/06/16 03:52:54;;;;;;;2.38;1.83;;;;;;;30.38;26.91;94213.78;5135445;27;20047;-52
2021/06/16 03:55:22;;;;;;;2.35;1.73;;;;;;;30.21;27.47;94215.66;5127536;27;20441;-57
2021/06/16 03:57:50;;;;;;;5.97;1.90;;;;;;;29.44;28.36;94222.03;5114197;28;20050;-54
2021/06/16 04:00:22;;;;;;;5.18;1.60;;;;;;;31.06;26.24;94218.50;5113239;28;20612;-54
2021/06/16 04:02:49;;;;;;;3.60;1.73;;;;;;;31.60;25.38;94220.72;5112790;28;20357;-38
2021/06/16 04:05:17;;;;;;;2.83;1.63;;;;;;;31.42;25.59;94215.75;5114807;28;20070;-51
2021/06/16 04:07:51;;;;;;;4.32;1.70;;;;;;;31.70;25.29;94222.38;5113985;28;20370;-52
2021/06/16 04:10:19;;;;;;;2.60;1.75;;;;;;;31.79;25.17;94221.81;5106727;28;20492;-50
2021/06/16 04:12:47;;;;;;;2.63;1.70;;;;;;;31.27;25.81;94220.00;5113959;28;20370;-49
2021/06/16 04:15:17;;;;;;;4.43;1.80;;;;;;;31.74;25.13;94223.06;5113883;28;20047;-59
2021/06/16 04:17:44;;;;;;;3.83;2.05;;;;;;;31.70;24.60;94219.69;5114627;28;20465;-53
2021/06/16 04:20:12;;;;;;;4.40;1.88;;;;;;;31.24;25.84;94227.00;5113759;28;20039;-45
2021/06/16 04:22:40;;;;;;;2.25;1.60;;;;;;;32.10;24.63;94233.72;5125013;28;20031;-45
2021/06/16 04:25:09;;;;;;;3.80;1.75;;;;;;;31.36;25.58;94227.47;5104298;28;20047;-39
2021/06/16 04:27:37;;;;;;;2.17;1.67;;;;;;;32.34;24.17;94226.16;5114925;28;20048;-37
2021/06/16 04:30:07;;;;;;;4.28;1.77;;;;;;;32.47;24.21;94226.94;5112308;28;20406;-49
2021/06/16 04:32:35;;;;;;;5.32;2.00;;;;;;;32.80;23.67;94232.22;5097182;28;20051;-53
2021/06/16 04:35:02;;;;;;;2.42;1.70;;;;;;;32.62;24.15;94229.25;5100087;28;20051;-56
2021/06/16 04:37:29;;;;;;;4.57;1.80;;;;;;;32.65;23.85;94229.13;5119136;28;20051;-47
2021/06/16 04:39:56;;;;;;;3.63;1.83;;;;;;;31.15;26.05;94224.06;5118480;28;20462;-47
2021/06/16 04:42:23;;;;;;;3.35;1.75;;;;;;;32.51;24.32;94234.94;5118168;28;20442;-43
2021/06/16 04:44:51;;;;;;;4.82;1.90;;;;;;;31.88;25.21;94230.06;5118767;28;20047;-52
2021/06/16 04:47:18;;;;;;;3.28;1.50;;;;;;;32.70;24.09;94227.84;5118872;28;20389;-49
2021/06/16 04:49:45;;;;;;;2.67;1.77;;;;;;;32.42;24.42;94234.81;5118270;28;20043;-49
2021/06/16 04:52:13;;;;;;;4.72;1.88;;;;;;;30.29;27.44;94232.44;5116923;28;20047;-54
2021/06/16 04:54:40;;;;;;;3.20;1.73;;;;;;;29.96;28.09;94234.97;5114102;28;20056;-48
2021/06/16 04:57:07;;;;;;;2.00;1.50;;;;;;;29.87;28.17;94242.81;5117967;28;20477;-55
2021/06/16 04:59:35;;;;;;;2.83;1.98;;;;;;;29.65;28.60;94239.72;5101163;28;20052;-52
2021/06/16 05:02:03;;;;;;;1.65;1.33;;;;;;;30.56;27.25;94233.06;5114988;28;20059;-46
2021/06/16 05:04:30;;;;;;;3.03;1.80;;;;;;;30.22;27.77;94235.28;5118401;28;20054;-55
2021/06/16 05:06:58;;;;;;;2.45;1.70;;;;;;;30.51;27.43;94236.25;5118276;28;20055;-50
2021/06/16 05:09:25;;;;;;;2.55;1.50;;;;;;;30.90;26.71;94234.66;5118405;27;20400;-52
2021/06/16 05:11:53;;;;;;;3.92;1.63;;;;;;;30.87;26.76;94230.13;5117819;27;20043;-53
2021/06/16 05:14:20;;;;;;;4.60;2.15;;;;;;;30.52;27.15;94232.38;5118404;27;20074;-50
2021/06/16 05:16:47;;;;;;;4.32;2.00;;;;;;;30.31;27.41;94243.59;5118045;28;20050;-54
2021/06/16 05:19:20;;;;;;;3.63;1.80;;;;;;;30.25;27.77;94250.63;5118279;27;20094;-47
2021/06/16 05:21:48;;;;;;;3.42;1.60;;;;;;;30.17;27.95;94260.00;5126927;27;20054;-50
2021/06/16 05:24:16;;;;;;;5.50;1.73;;;;;;;31.21;26.29;94260.22;5138784;27;20477;-49
2021/06/16 05:26:43;;;;;;;3.75;1.50;;;;;;;30.83;26.63;94257.19;5122964;27;20043;-56
2021/06/16 05:29:10;;;;;;;2.20;1.50;;;;;;;30.82;26.91;94252.19;5118095;28;20484;-57
2021/06/16 05:31:38;;;;;;;2.47;1.50;;;;;;;30.58;27.05;94256.91;5117540;28;20074;-55
2021/06/16 05:34:06;;;;;;;3.50;2.10;;;;;;;30.45;28.04;94259.50;5117962;28;20058;-52
2021/06/16 05:36:34;;;;;;;5.28;1.80;;;;;;;30.64;27.35;94253.31;5117688;28;20465;-50
2021/06/16 05:39:01;;;;;;;3.20;1.70;;;;;;;30.78;27.20;94259.63;5117989;28;20377;-58
2021/06/16 05:41:28;;;;;;;4.13;2.00;;;;;;;30.25;28.29;94264.13;5117535;28;20367;-54
2021/06/16 05:43:55;;;;;;;2.88;1.88;;;;;;;30.61;27.50;94264.94;5117410;28;20055;-51
2021/06/16 05:46:23;;;;;;;4.03;1.95;;;;;;;30.17;28.28;94271.56;5117598;28;20039;-55
2021/06/16 05:48:50;;;;;;;5.32;2.10;;;;;;;30.55;27.75;94269.28;5117791;28;20117;-59
2021/06/16 05:51:17;;;;;;;3.03;1.80;;;;;;;30.98;27.03;94274.59;5123101;27;20043;-52
2021/06/16 05:53:44;;;;;;;4.30;2.00;;;;;;;30.41;27.67;94263.41;5137935;27;20058;-48
2021/06/16 05:56:11;;;;;;;4.13;1.90;;;;;;;30.54;27.59;94267.78;5127824;27;20450;-62
2021/06/16 05:58:38;;;;;;;3.95;1.88;;;;;;;31.06;26.86;94261.69;5117459;28;20051;-56
2021/06/16 06:01:05;;;;;;;4.50;1.98;;;;;;;30.77;27.18;94258.09;5117054;28;20051;-47
2021/06/16 06:03:34;;;;;;;4.63;1.70;;;;;;;30.73;27.01;94252.78;5117541;28;20335;-51
2021/06/16 06:06:01;;;;;;;2.65;1.80;;;;;;;30.89;26.65;94255.50;5117118;28;20050;-53
2021/06/16 06:08:28;;;;;;;3.20;1.90;;;;;;;30.89;26.98;94254.75;5117420;28;20055;-47
2021/06/16 06:10:57;;;;;;;3.25;1.88;;;;;;;31.91;26.11;94261.66;5107681;28;20051;-48
2021/06/16 06:13:24;;;;;;;3.97;2.05;;;;;;;32.01;26.17;94254.44;5120810;27;20454;-57
2021/06/16 06:15:51;;;;;;;6.15;2.00;;;;;;;31.93;26.49;94259.28;5114872;27;20055;-52
2021/06/16 06:18:18;;;;;;;4.45;1.77;;;;;;;31.86;26.42;94265.63;5096719;28;20055;-47
2021/06/16 06:20:46;;;;;;;5.97;1.90;;;;;;;31.96;26.49;94271.19;5107484;27;20047;-59
2021/06/16 06:23:13;;;;;;;5.10;1.90;;;;;;;32.15;25.60;94275.69;5137164;27;20039;-56
2021/06/16 06:25:40;;;;;;;7.20;2.00;;;;;;;32.56;25.35;94274.25;5132636;27;20043;-48
2021/06/16 06:28:08;;;;;;;3.47;1.80;;;;;;;32.30;25.88;94282.28;5116914;28;20051;-47
2021/06/16 06:30:35;;;;;;;2.90;1.88;;;;;;;32.01;25.73;94276.84;5116548;28;20465;-48
2021/06/16 06:33:03;;;;;;;2.22;1.50;;;;;;;32.09;25.86;94272.00;5116794;28;20052;-55
2021/06/16 06:35:31;;;;;;;2.30;1.60;;;;;;;31.62;26.51;94271.63;5116482;28;20063;-47
2021/06/16 06:37:58;;;;;;;2.83;1.80;;;;;;;31.79;26.61;94282.03;5115627;28;20048;-45
2021/06/16 06:40:25;;;;;;;2.83;1.50;;;;;;;32.22;25.84;94278.22;5116245;27;20458;-47
2021/06/16 06:42:52;;;;;;;6.35;2.10;;;;;;;31.95;25.72;94266.97;5116628;28;20047;-48
2021/06/16 06:45:19;;;;;;;3.85;2.10;;;;;;;31.54;26.41;94265.63;5116714;28;20043;-46
2021/06/16 06:47:46;;;;;;;3.50;1.90;;;;;;;32.20;25.83;94272.47;5116541;28;20043;-48
2021/06/16 06:50:14;;;;;;;7.35;1.98;;;;;;;31.85;26.62;94280.31;5119741;27;20043;-48
2021/06/16 06:52:43;;;;;;;2.65;2.10;;;;;;;32.25;25.54;94282.00;5131897;27;20039;-49
2021/06/16 06:55:12;;;;;;;2.30;1.58;;;;;;;31.31;26.77;94290.88;5136026;27;20046;-45
2021/06/16 06:57:39;;;;;;;3.63;1.80;;;;;;;31.66;26.67;94285.78;5116518;27;20056;-47
2021/06/16 07:00:08;;;;;;;3.25;1.60;;;;;;;31.47;26.62;94292.78;5116196;28;20044;-47
2021/06/16 07:02:35;;;;;;;4.28;1.90;;;;;;;31.87;26.83;94288.00;5116057;28;20052;-47
2021/06/16 07:05:03;;;;;;;3.53;1.92;;;;;;;32.12;25.65;94293.53;5116215;28;20039;-46
2021/06/16 07:07:30;;;;;;;2.97;2.03;;;;;;;32.74;25.49;94298.84;5115835;28;20449;-48
2021/06/16 07:09:57;;;;;;;3.30;2.30;;;;;;;32.42;25.54;94297.78;5108846;28;20103;-46
2021/06/16 07:12:24;;;;;;;2.50;1.77;;;;;;;32.60;25.32;94289.19;5112718;28;20054;-47
2021/06/16 07:14:53;;;;;;;3.65;1.95;;;;;;;31.94;26.79;94297.88;5116098;28;20046;-49
2021/06/16 07:17:20;;;;;;;4.47;2.17;;;;;;;33.10;25.73;94304.78;5115750;28;20055;-47
2021/06/16 07:19:47;;;;;;;2.85;1.85;;;;;;;33.53;24.66;94292.66;5097485;28;20059;-57
2021/06/16 07:22:15;;;;;;;5.45;1.98;;;;;;;33.39;24.66;94303.97;5115301;28;20039;-47
2021/06/16 07:24:42;;;;;;;4.38;2.03;;;;;;;33.32;24.71;94288.69;5115865;27;20479;-52
2021/06/16 07:27:10;;;;;;;3.17;1.70;;;;;;;33.08;24.77;94290.16;5115830;27;20078;-52
2021/06/16 07:29:38;;;;;;;4.68;2.20;;;;;;;33.41;24.87;94299.63;5135032;27;20368;-53
2021/06/16 07:32:05;;;;;;;3.88;2.00;;;;;;;34.25;23.85;94291.88;5109734;27;20066;-48
2021/06/16 07:34:32;;;;;;;4.35;2.28;;;;;;;34.93;24.04;94287.56;5094950;28;20062;-55
2021/06/16 07:37:00;;;;;;;4.18;2.50;;;;;;;34.19;24.14;94282.78;5105886;28;20047;-52
2021/06/16 07:39:27;;;;;;;3.92;2.50;;;;;;;34.04;24.57;94281.75;5115493;28;20469;-49
2021/06/16 07:41:54;;;;;;;3.13;1.88;;;;;;;34.81;23.72;94274.78;5115267;28;20047;-49
2021/06/16 07:44:21;;;;;;;2.72;1.98;;;;;;;34.28;23.74;94280.13;5115555;28;20051;-50
2021/06/16 07:46:48;;;;;;;5.07;2.22;;;;;;;34.03;23.79;94274.81;5101732;28;20358;-49
2021/06/16 07:49:16;;;;;;;4.15;2.22;;;;;;;33.89;24.31;94259.03;5095241;28;20055;-47
2021/06/16 07:51:43;;;;;;;4.22;2.30;;;;;;;33.06;24.94;94260.06;5122696;27;20050;-56
2021/06/16 07:54:13;;;;;;;3.35;2.03;;;;;;;33.29;25.50;94264.38;5135792;27;20047;-49
2021/06/16 07:56:41;;;;;;;3.60;2.08;;;;;;;33.76;24.61;94260.97;5109179;27;20047;-53
2021/06/16 07:59:09;;;;;;;5.22;2.22;;;;;;;33.90;24.63;94268.69;5115480;28;20070;-50
2021/06/16 08:01:37;;;;;;;3.38;2.38;;;;;;;34.19;24.35;94271.16;5112858;28;20054;-59
2021/06/16 08:04:04;;;;;;;3.85;1.92;;;;;;;34.28;23.76;94273.94;5115405;28;20046;-56
2021/06/16 08:06:31;;;;;;;3.72;2.20;;;;;;;33.90;24.32;94269.44;5113724;28;20040;-49
2021/06/16 08:08:59;;;;;;;2.85;2.00;;;;;;;33.63;24.52;94269.91;5115321;28;20039;-49
2021/06/16 08:11:26;;;;;;;3.45;1.98;;;;;;;33.99;24.42;94274.16;5114925;28;20082;-52
2021/06/16 08:13:53;;;;;;;3.95;2.28;;;;;;;34.45;23.44;94282.69;5115065;28;20054;-50
2021/06/16 08:16:22;;;;;;;3.20;2.40;;;;;;;34.16;23.61;94289.09;5115015;28;20062;-49
2021/06/16 08:18:51;;;;;;;3.88;2.17;;;;;;;33.93;24.05;94298.38;5115261;28;20452;-48
2021/06/16 08:21:19;;;;;;;3.85;2.15;;;;;;;33.69;24.34;94292.53;5124191;28;20078;-50
2021/06/16 08:23:47;;;;;;;3.03;2.10;;;;;;;33.89;23.93;94300.44;5135555;28;20039;-55
2021/06/16 08:26:15;;;;;;;3.28;2.38;;;;;;;33.87;24.44;94310.22;5132938;28;20472;-49
2021/06/16 08:28:43;;;;;;;2.65;1.98;;;;;;;34.15;23.60;94308.50;5115070;28;20043;-56
2021/06/16 08:31:10;;;;;;;2.25;2.05;;;;;;;33.71;23.87;94303.69;5114609;28;20056;-55
2021/06/16 08:33:39;;;;;;;3.28;2.17;;;;;;;33.99;24.42;94312.13;5115030;28;20047;-47
2021/06/16 08:36:07;;;;;;;3.95;2.15;;;;;;;34.00;23.97;94311.69;5114930;28;20048;-52
2021/06/16 08:38:34;;;;;;;2.45;2.25;;;;;;;34.10;23.39;94306.38;5099267;28;20044;-49
2021/06/16 08:41:07;;;;;;;7.50;6.80;;;;;;;34.11;23.81;94303.22;5096630;28;20055;-51
2021/06/16 08:43:42;;;;;;;12.10;10.85;;;;;;;34.76;23.55;94313.34;5114964;28;20036;-56
2021/06/16 08:46:12;;;;;;;3.22;2.92;;;;;;;34.72;23.16;94307.31;5114895;28;20048;-50
2021/06/16 08:48:41;;;;;;;5.25;2.40;;;;;;;34.56;23.42;94310.97;5114670;28;20044;-49
2021/06/16 08:51:12;;;;;;;6.25;2.13;;;;;;;34.40;23.37;94304.97;5122411;28;20469;-49
2021/06/16 08:53:40;;;;;;;5.03;2.20;;;;;;;35.22;22.29;94308.22;5114490;28;20047;-49
2021/06/16 08:56:07;;;;;;;3.55;1.95;;;;;;;34.00;23.34;94319.06;5114815;28;20044;-53
2021/06/16 08:58:36;;;;;;;3.85;2.10;;;;;;;33.78;23.67;94312.78;5114548;28;20044;-50
2021/06/16 09:01:06;;;;;;;3.28;2.15;;;;;;;33.83;23.97;94314.94;5114416;28;20078;-49
2021/06/16 09:03:34;;;;;;;5.47;2.10;;;;;;;34.22;23.17;94319.13;5095143;28;20457;-53
2021/06/16 09:06:12;;;;;;;3.08;1.90;;;;;;;33.90;23.67;94331.03;5094332;28;20497;-52
2021/06/16 09:08:57;;;;;;;3.03;2.40;;;;;;;33.47;24.44;94326.16;5113016;28;20048;-48
2021/06/16 09:11:26;;;;;;;2.65;1.90;;;;;;;34.16;23.45;94337.91;5114333;28;20063;-55
2021/06/16 09:14:11;;;;;;;4.38;2.08;;;;;;;34.00;23.51;94329.91;5114759;28;20046;-48
2021/06/16 09:16:38;;;;;;;3.30;2.05;;;;;;;34.04;23.83;94333.25;5114398;28;20058;-55
2021/06/16 09:19:23;;;;;;;3.35;2.33;;;;;;;34.15;23.52;94336.38;5117981;28;20063;-48
2021/06/16 09:22:02;;;;;;;3.72;2.20;;;;;;;34.23;23.46;94353.94;5126675;27;20044;-51
2021/06/16 09:24:43;;;;;;;2.65;2.08;;;;;;;34.33;23.25;94336.53;5117469;28;20470;-58
2021/06/16 09:27:10;;;;;;;3.13;2.35;;;;;;;34.06;23.80;94346.38;5102491;28;20378;-51
2021/06/16 09:29:38;;;;;;;3.85;2.30;;;;;;;34.27;23.82;94346.44;5116908;28;20047;-49
2021/06/16 09:32:06;;;;;;;3.08;2.33;;;;;;;33.86;23.54;94349.38;5117813;28;20044;-55
2021/06/16 09:34:34;;;;;;;4.15;2.85;;;;;;;34.17;23.80;94346.81;5117960;28;20046;-52
2021/06/16 09:37:06;;;;;;;2.33;2.08;;;;;;;34.57;23.62;94344.28;5117676;28;20047;-51
2021/06/16 09:39:33;;;;;;;3.85;2.25;;;;;;;34.61;23.43;94339.47;5117937;28;20047;-49
2021/06/16 09:42:14;;;;;;;3.03;2.38;;;;;;;34.65;23.27;94336.66;5108089;28;20046;-56
2021/06/16 09:44:50;;;;;;;3.45;1.80;;;;;;;34.68;23.52;94328.41;5117978;28;20036;-50
2021/06/16 09:47:23;;;;;;;5.00;1.98;;;;;;;34.70;22.88;94336.84;5117545;27;20051;-55
2021/06/16 09:49:59;;;;;;;2.92;2.10;;;;;;;34.75;23.03;94338.22;5116724;27;20051;-50
2021/06/16 09:52:36;;;;;;;3.88;1.70;;;;;;;34.85;22.98;94343.28;5125054;27;20063;-52
2021/06/16 09:55:30;;;;;;;4.60;1.90;;;;;;;34.83;22.75;94342.97;5115694;28;20044;-49
2021/06/16 09:58:05;;;;;;;3.03;1.90;;;;;;;34.71;23.08;94349.22;5115050;28;20047;-53
2021/06/16 10:00:37;;;;;;;5.60;1.83;;;;;;;34.00;23.76;94351.59;5117479;27;20039;-48
2021/06/16 10:03:22;;;;;;;4.55;2.35;;;;;;;34.22;23.33;94355.13;5112941;28;20054;-52
2021/06/16 10:06:06;;;;;;;4.25;1.92;;;;;;;34.43;23.28;94355.66;5096980;28;20106;-50
2021/06/16 10:08:44;;;;;;;4.88;2.20;;;;;;;34.35;23.37;94365.19;5110939;28;20039;-48
2021/06/16 10:11:14;;;;;;;13.57;2.00;;;;;;;34.09;23.94;94369.91;5116718;28;20055;-49
2021/06/16 10:13:42;;;;;;;3.22;1.80;;;;;;;34.30;23.87;94366.50;5117134;27;20047;-49
2021/06/16 10:16:10;;;;;;;3.35;1.80;;;;;;;34.36;23.51;94366.75;5117337;28;20043;-47
2021/06/16 10:18:42;;;;;;;4.43;1.80;;;;;;;34.69;24.65;94362.47;5116907;28;20047;-49
2021/06/16 10:21:13;;;;;;;6.28;2.42;;;;;;;35.16;23.00;94361.59;5123003;27;20058;-47
2021/06/16 10:23:40;;;;;;;3.63;2.40;;;;;;;35.21;22.60;94352.88;5137547;27;20056;-49
2021/06/16 10:26:36;;;;;;;3.47;1.88;;;;;;;35.18;22.72;94353.78;5137573;27;20280;-50
2021/06/16 10:29:05;;;;;;;3.25;2.17;;;;;;;35.33;22.85;94359.41;5084077;28;20044;-48
2021/06/16 10:31:38;;;;;;;3.55;1.70;;;;;;;34.79;23.17;94350.47;5097967;28;20047;-52
2021/06/16 10:34:06;;;;;;;1.90;1.70;;;;;;;34.77;23.06;94355.59;5116853;28;20374;-48
2021/06/16 10:36:33;;;;;;;2.08;1.80;;;;;;;34.62;24.09;94355.34;5116921;28;20073;-51
2021/06/16 10:39:13;;;;;;;3.92;1.70;;;;;;;34.50;24.13;94358.09;5116469;28;20051;-49
2021/06/16 10:41:46;;;;;;;2.25;1.75;;;;;;;34.80;23.61;94357.41;5116413;27;20044;-47
2021/06/16 10:44:20;;;;;;;7.93;6.88;;;;;;;34.71;23.15;94354.66;5116694;27;20366;-46
2021/06/16 10:47:00;;;;;;;13.02;11.23;;;;;;;34.81;23.33;94352.75;5116701;28;20046;-48
2021/06/16 10:49:42;;;;;;;6.40;4.97;;;;;;;34.62;23.63;94358.06;5115712;28;20051;-48
2021/06/16 10:52:14;;;;;;;4.15;3.55;;;;;;;34.52;23.90;94356.47;5127771;27;20483;-47
2021/06/16 10:55:04;;;;;;;3.78;3.33;;;;;;;34.54;23.76;94358.75;5116363;28;20051;-47
2021/06/16 10:57:33;;;;;;;3.53;2.63;;;;;;;35.34;22.68;94356.28;5116452;28;20046;-46
2021/06/16 11:00:03;;;;;;;6.00;2.33;;;;;;;34.84;23.19;94355.34;5115873;28;20052;-47
2021/06/16 11:02:34;;;;;;;3.35;2.13;;;;;;;35.10;22.96;94352.50;5116052;28;20048;-47
2021/06/16 11:05:20;;;;;;;5.03;2.30;;;;;;;34.81;22.97;94347.31;5116335;28;20039;-47
2021/06/16 11:07:47;;;;;;;3.80;2.25;;;;;;;34.98;22.70;94356.06;5116233;28;20047;-47
2021/06/16 11:10:14;;;;;;;3.25;1.80;;;;;;;34.98;22.87;94356.81;5114645;28;20063;-49
2021/06/16 11:12:48;;;;;;;3.13;1.70;;;;;;;35.12;21.92;94348.13;5074054;22;20052;-50
2021/06/16 11:15:34;;;;;;;1.88;1.70;;;;;;;35.53;22.12;94341.56;5037316;28;20056;-53
2021/06/16 11:18:03;;;;;;;5.22;1.60;;;;;;;35.38;21.28;94340.59;5038179;28;20379;-50
2021/06/16 11:20:37;;;;;;;2.53;1.45;;;;;;;35.33;20.87;94343.88;5055344;28;20055;-50
2021/06/16 11:23:05;;;;;;;3.47;1.70;;;;;;;35.36;22.04;94334.84;5055126;28;20044;-56
2021/06/16 11:25:37;;;;;;;1.80;1.40;;;;;;;34.91;22.35;94340.78;5054808;28;20049;-48
2021/06/16 11:28:16;;;;;;;1.30;1.13;;;;;;;35.75;21.35;94338.78;5055116;28;20052;-58
2021/06/16 11:30:54;;;;;;;3.10;1.33;;;;;;;36.18;20.95;94326.19;5042593;28;20048;-57
2021/06/16 11:33:22;;;;;;;2.70;1.90;;;;;;;35.16;21.83;94326.28;5035157;28;20049;-54
2021/06/16 11:36:12;;;;;;;3.20;1.52;;;;;;;35.68;20.76;94335.59;5032965;28;20060;-51
2021/06/16 11:38:44;;;;;;;2.28;1.50;;;;;;;35.62;21.10;94332.69;5017186;28;20045;-54
2021/06/16 11:41:17;;;;;;;1.60;1.50;;;;;;;35.10;21.48;94328.06;5015968;28;20061;-56
2021/06/16 11:43:51;;;;;;;1.80;1.50;;;;;;;35.24;21.28;94330.25;5030910;28;20053;-56
2021/06/16 11:46:28;;;;;;;1.85;1.50;;;;;;;35.21;21.40;94323.75;5028714;28;20064;-50